Time;durP1;ratioP1;P1;durP2;ratioP2;P2;SDS_P1;SDS_P2;PMS_P1;PMS_P2;Temp;Humidity;BMP_temperature;BMP_pressure;BME280_temperature;BME280_humidity;BME280_pressure;Samples;Min_cycle;Max_cycle;Signal;HPM_P1;HPM_P2
2022/01/10 00:00:56;;;;;;;8.75;2.08;;;2.80;99.90;;;;;;19927062;29;20431;-44
2022/01/10 00:10:57;;;;;;;5.95;1.83;;;2.80;99.90;;;;;;19918864;29;20045;-45
2022/01/10 00:20:58;;;;;;;4.00;2.03;;;2.80;99.90;;;;;;19918588;29;20054;-44
2022/01/10 00:31:00;;;;;;;5.35;2.20;;;2.90;99.90;;;;;;19922788;29;20030;-45
2022/01/10 00:41:01;;;;;;;8.63;2.22;;;2.90;99.90;;;;;;19892768;29;20062;-44
2022/01/10 00:51:02;;;;;;;5.60;2.22;;;2.80;99.90;;;;;;19905090;29;20073;-44
2022/01/10 01:01:04;;;;;;;3.75;1.77;;;2.70;99.90;;;;;;19921113;29;20054;-45
2022/01/10 01:31:38;;;;;;;10.50;2.67;;;2.90;99.90;;;;;;19918224;29;20049;-44
2022/01/10 01:41:42;;;;;;;10.25;3.03;;;2.90;99.90;;;;;;19913953;29;20061;-44
2022/01/10 01:51:43;;;;;;;4.05;2.17;;;2.90;99.90;;;;;;19920235;29;20527;-44
2022/01/10 02:01:44;;;;;;;5.18;2.58;;;2.80;99.90;;;;;;19907954;29;20046;-44
2022/01/10 02:11:46;;;;;;;8.15;2.63;;;2.70;99.90;;;;;;19925313;29;20297;-45
2022/01/10 02:21:48;;;;;;;5.85;2.95;;;2.70;99.90;;;;;;19918265;29;21383;-46
2022/01/10 02:31:50;;;;;;;4.55;2.63;;;2.60;99.90;;;;;;19917220;29;20066;-44
2022/01/10 02:41:51;;;;;;;5.20;2.35;;;2.50;99.90;;;;;;19927570;29;20050;-44
2022/01/10 02:51:54;;;;;;;6.75;3.15;;;2.40;99.90;;;;;;19917426;29;22322;-44
2022/01/10 03:01:55;;;;;;;4.30;2.75;;;2.30;99.90;;;;;;19908619;29;20065;-44
2022/01/10 03:11:56;;;;;;;10.13;3.08;;;2.40;99.90;;;;;;19916715;29;20054;-44
2022/01/10 03:21:57;;;;;;;5.88;3.08;;;2.50;99.90;;;;;;19919182;29;20075;-44
2022/01/10 03:31:58;;;;;;;8.23;2.92;;;2.60;99.90;;;;;;19920880;29;20049;-45
2022/01/10 03:41:59;;;;;;;6.57;3.25;;;2.70;99.90;;;;;;19904251;29;20067;-44
2022/01/10 03:52:00;;;;;;;4.32;2.67;;;2.80;99.90;;;;;;19921116;29;20531;-44
2022/01/10 04:02:03;;;;;;;9.05;3.28;;;2.80;99.90;;;;;;19912629;29;20042;-44
2022/01/10 04:12:05;;;;;;;7.63;4.50;;;2.90;99.90;;;;;;19919491;29;20049;-44
2022/01/10 04:22:06;;;;;;;9.45;3.60;;;2.90;99.90;;;;;;19927941;29;20053;-44
2022/01/10 04:32:10;;;;;;;9.13;4.15;;;2.80;99.90;;;;;;19914747;29;20035;-44
2022/01/10 04:42:11;;;;;;;8.60;3.90;;;2.90;99.90;;;;;;19920992;29;20046;-44
2022/01/10 04:52:13;;;;;;;7.90;3.90;;;2.90;99.90;;;;;;19926814;29;20060;-45
2022/01/10 05:02:14;;;;;;;8.10;4.20;;;3.00;99.90;;;;;;19932109;29;20057;-45
2022/01/10 05:12:15;;;;;;;13.40;4.05;;;3.10;99.90;;;;;;19933301;29;20039;-44
2022/01/10 05:22:16;;;;;;;12.70;4.15;;;3.10;99.90;;;;;;19920880;29;20522;-44
2022/01/10 05:32:18;;;;;;;9.93;4.72;;;3.20;99.90;;;;;;19931674;29;20054;-44
2022/01/10 05:42:20;;;;;;;8.18;3.75;;;3.30;99.90;;;;;;19923335;29;20094;-44
2022/01/10 05:52:21;;;;;;;10.60;4.35;;;3.30;99.90;;;;;;19923731;29;20050;-44
2022/01/10 06:02:22;;;;;;;7.70;4.00;;;3.40;99.90;;;;;;19917841;29;20055;-44
2022/01/10 06:12:23;;;;;;;11.63;6.00;;;3.50;99.90;;;;;;19905165;29;20046;-44
2022/01/10 06:22:24;;;;;;;14.30;5.18;;;3.50;99.90;;;;;;19922638;29;20054;-44
2022/01/10 06:32:26;;;;;;;8.38;3.83;;;3.40;99.90;;;;;;19898675;29;20042;-44
2022/01/10 06:42:27;;;;;;;11.55;4.55;;;3.40;99.90;;;;;;19910914;29;20057;-44
2022/01/10 06:52:28;;;;;;;7.53;3.10;;;3.40;99.90;;;;;;19917737;29;20074;-44
2022/01/10 07:02:29;;;;;;;15.55;4.53;;;3.50;99.90;;;;;;19929664;29;20393;-44
2022/01/10 07:12:30;;;;;;;12.50;3.40;;;3.50;99.90;;;;;;19929223;29;20057;-44
2022/01/10 07:22:31;;;;;;;7.85;3.60;;;3.50;99.90;;;;;;19939814;29;21166;-45
2022/01/10 07:32:32;;;;;;;8.18;3.90;;;3.50;99.90;;;;;;19897571;29;20047;-44
2022/01/10 07:42:33;;;;;;;12.15;4.10;;;3.50;99.90;;;;;;19894288;29;20054;-44
2022/01/10 07:52:35;;;;;;;15.48;4.07;;;3.50;99.90;;;;;;19879372;29;20191;-44
2022/01/10 08:02:36;;;;;;;11.07;3.95;;;3.50;99.90;;;;;;19880279;29;20499;-44
2022/01/10 08:12:37;;;;;;;7.75;3.50;;;3.50;99.90;;;;;;19886313;29;20443;-44
2022/01/10 08:22:38;;;;;;;9.63;3.85;;;3.50;99.90;;;;;;19887311;29;20466;-44
2022/01/10 08:32:40;;;;;;;12.43;4.28;;;3.50;99.90;;;;;;19876932;29;20042;-44
2022/01/10 08:42:41;;;;;;;10.52;3.90;;;3.50;99.90;;;;;;19877418;29;20401;-44
2022/01/10 08:52:43;;;;;;;7.60;3.90;;;3.60;99.90;;;;;;19871776;29;20069;-44
2022/01/10 09:02:44;;;;;;;8.20;3.90;;;3.60;99.90;;;;;;19877962;29;20057;-44
2022/01/10 09:12:45;;;;;;;13.27;4.47;;;3.70;99.90;;;;;;19880693;29;20035;-44
2022/01/10 09:22:46;;;;;;;12.05;6.03;;;3.80;99.90;;;;;;19880665;29;20066;-44
2022/01/10 09:32:47;;;;;;;10.73;5.03;;;3.90;99.90;;;;;;19877295;29;20395;-44
2022/01/10 09:42:49;;;;;;;13.90;5.03;;;4.00;99.90;;;;;;19878611;29;20061;-44
2022/01/10 09:52:50;;;;;;;16.98;5.97;;;4.20;99.90;;;;;;19875506;29;20065;-44
2022/01/10 10:02:52;;;;;;;12.88;5.38;;;4.40;99.90;;;;;;19875745;29;20278;-44
2022/01/10 10:12:54;;;;;;;12.48;5.72;;;4.60;99.90;;;;;;19873945;29;20050;-44
2022/01/10 10:22:55;;;;;;;12.82;5.53;;;4.60;99.90;;;;;;19870690;29;20065;-44
2022/01/10 10:33:18;;;;;;;11.35;5.90;;;4.80;99.90;;;;;;19874849;29;20050;-44
2022/01/10 10:43:20;;;;;;;11.63;4.88;;;4.80;99.90;;;;;;19867730;29;20077;-44
2022/01/10 10:53:27;;;;;;;9.30;5.18;;;4.90;99.90;;;;;;19875724;29;20054;-44
2022/01/10 11:03:28;;;;;;;9.88;4.85;;;5.20;99.90;;;;;;19874417;29;20050;-44
2022/01/10 11:13:30;;;;;;;11.93;4.97;;;5.30;99.90;;;;;;19868049;29;20474;-44
2022/01/10 11:23:37;;;;;;;11.02;4.90;;;5.50;99.90;;;;;;19863786;29;20062;-44
2022/01/10 11:33:42;;;;;;;14.93;5.50;;;5.70;99.90;;;;;;19860679;29;20047;-44
2022/01/10 11:43:56;;;;;;;14.82;5.13;;;6.30;99.90;;;;;;19876500;29;20058;-44
2022/01/10 11:54:14;;;;;;;10.63;5.22;;;7.40;99.90;;;;;;19895407;29;20065;-44
2022/01/10 12:04:16;;;;;;;14.30;5.57;;;8.20;99.90;;;;;;19889048;29;20041;-45
2022/01/10 12:14:18;;;;;;;20.40;6.53;;;8.80;99.90;;;;;;19904796;29;20046;-44
2022/01/10 12:24:20;;;;;;;15.20;4.93;;;8.80;99.90;;;;;;19907883;29;20134;-45
2022/01/10 12:34:22;;;;;;;10.30;4.40;;;9.00;99.90;;;;;;19899139;29;20057;-44
2022/01/10 12:44:25;;;;;;;12.38;5.13;;;9.80;99.90;;;;;;19901067;29;20049;-44
2022/01/10 12:54:28;;;;;;;11.55;5.35;;;9.80;99.90;;;;;;19891825;29;20065;-45
2022/01/10 13:04:36;;;;;;;13.88;5.72;;;9.90;99.90;;;;;;19897720;29;20077;-44
2022/01/10 13:14:38;;;;;;;11.40;4.70;;;9.90;99.90;;;;;;19908757;29;20075;-45
2022/01/10 13:24:51;;;;;;;12.63;4.38;;;10.00;99.90;;;;;;19888385;29;20050;-45
2022/01/10 13:35:04;;;;;;;7.88;4.25;;;9.80;99.90;;;;;;19883355;29;20054;-45
2022/01/10 13:45:07;;;;;;;13.45;4.63;;;9.70;99.90;;;;;;19885222;29;20066;-45
2022/01/10 13:55:13;;;;;;;12.10;4.13;;;9.60;99.90;;;;;;19872539;29;20178;-45
2022/01/10 14:05:22;;;;;;;11.02;4.05;;;8.70;99.90;;;;;;19867744;29;20042;-45
2022/01/10 14:15:30;;;;;;;11.18;4.78;;;8.20;99.90;;;;;;19857575;29;20723;-45
2022/01/10 14:25:31;;;;;;;10.05;4.13;;;7.80;99.90;;;;;;19866988;29;20065;-45
2022/01/10 14:35:32;;;;;;;9.68;4.65;;;7.60;99.90;;;;;;19862231;29;20519;-45
2022/01/10 14:45:37;;;;;;;11.93;5.38;;;7.40;99.90;;;;;;19850421;29;20059;-45
2022/01/10 14:55:44;;;;;;;12.27;4.88;;;7.30;99.90;;;;;;19862356;29;20058;-45
2022/01/10 15:05:47;;;;;;;14.83;5.30;;;7.20;99.90;;;;;;19864491;29;20440;-45
2022/01/10 15:15:49;;;;;;;8.38;4.30;;;7.00;99.90;;;;;;19861691;29;20527;-45
2022/01/10 15:25:50;;;;;;;17.42;4.50;;;6.80;99.90;;;;;;19859813;29;20050;-45
2022/01/10 15:35:52;;;;;;;13.07;4.57;;;6.60;99.90;;;;;;19850674;29;20054;-45
2022/01/10 15:45:53;;;;;;;13.05;4.43;;;6.50;99.90;;;;;;19859653;29;20427;-45
2022/01/10 15:55:54;;;;;;;9.15;3.95;;;6.30;99.90;;;;;;19861397;29;20054;-45
2022/01/10 16:05:56;;;;;;;12.48;4.72;;;6.20;99.90;;;;;;19856307;29;20074;-45
2022/01/10 16:15:57;;;;;;;14.82;6.80;;;6.00;99.90;;;;;;19885596;29;20100;-45
2022/01/10 16:25:58;;;;;;;16.40;5.07;;;5.80;99.90;;;;;;19878555;29;20054;-44
2022/01/10 16:36:00;;;;;;;12.10;5.18;;;5.70;99.90;;;;;;19888187;29;20050;-44
2022/01/10 16:46:01;;;;;;;13.35;4.75;;;5.50;99.90;;;;;;19891303;29;20435;-45
2022/01/10 16:56:03;;;;;;;12.65;3.95;;;5.30;99.90;;;;;;19902495;29;20062;-44
2022/01/10 17:06:04;;;;;;;13.43;4.10;;;5.20;99.90;;;;;;19898593;29;20042;-45
2022/01/10 17:16:08;;;;;;;17.63;3.88;;;5.10;99.90;;;;;;19917482;29;20046;-45
2022/01/10 17:26:09;;;;;;;14.38;4.50;;;5.00;99.90;;;;;;19913307;29;20058;-45
2022/01/10 17:36:12;;;;;;;9.32;4.57;;;5.00;99.90;;;;;;19914119;29;20410;-45
2022/01/10 17:46:14;;;;;;;10.05;4.57;;;4.90;99.90;;;;;;19917972;29;20058;-45
2022/01/10 17:56:15;;;;;;;15.55;4.60;;;4.80;99.90;;;;;;19914466;29;20046;-45
2022/01/10 18:06:16;;;;;;;14.30;5.32;;;4.60;99.90;;;;;;19900289;29;20069;-44
2022/01/10 18:16:20;;;;;;;14.52;4.10;;;4.50;99.90;;;;;;19895600;29;20319;-45
2022/01/10 18:26:21;;;;;;;13.63;4.43;;;4.40;99.90;;;;;;19908636;29;20050;-45
2022/01/10 18:36:25;;;;;;;12.40;4.70;;;4.20;99.90;;;;;;19901328;29;20043;-45
2022/01/10 18:46:27;;;;;;;11.00;3.53;;;4.10;99.90;;;;;;19902862;29;20054;-44
2022/01/10 18:56:28;;;;;;;19.02;6.40;;;4.00;99.90;;;;;;19904301;29;20058;-45
2022/01/10 19:06:29;;;;;;;17.05;5.00;;;3.90;99.90;;;;;;19898764;29;20054;-45
2022/01/10 19:16:30;;;;;;;18.58;5.20;;;3.60;99.90;;;;;;19903883;29;20054;-45
2022/01/10 19:26:33;;;;;;;16.02;5.00;;;3.30;99.90;;;;;;19892981;29;20051;-45
2022/01/10 19:36:34;;;;;;;12.15;4.57;;;3.00;99.90;;;;;;19893065;29;20051;-45
2022/01/10 19:46:36;;;;;;;11.63;4.13;;;2.90;99.90;;;;;;19899156;29;20054;-45
2022/01/10 19:56:37;;;;;;;7.97;2.72;;;2.20;99.90;;;;;;19897640;29;20328;-45
2022/01/10 20:06:38;;;;;;;7.57;2.33;;;1.70;99.90;;;;;;19915623;29;20050;-44
2022/01/10 20:16:42;;;;;;;6.28;2.53;;;1.60;99.90;;;;;;19912175;29;20498;-44
2022/01/10 20:26:43;;;;;;;9.52;3.00;;;1.40;99.90;;;;;;19906621;29;20036;-44
2022/01/10 20:36:44;;;;;;;9.55;3.95;;;1.30;99.90;;;;;;19896579;29;20045;-44
2022/01/10 20:46:46;;;;;;;11.35;2.53;;;1.40;99.90;;;;;;19898042;29;20057;-44
2022/01/10 20:56:47;;;;;;;9.23;3.20;;;1.40;99.90;;;;;;19904307;29;20038;-44
2022/01/10 21:06:48;;;;;;;14.20;3.47;;;1.30;99.90;;;;;;19899217;29;20073;-45
2022/01/10 21:16:49;;;;;;;10.40;3.45;;;1.20;99.90;;;;;;19896840;29;20050;-44
2022/01/10 21:26:51;;;;;;;9.73;3.63;;;1.40;99.90;;;;;;19886341;29;20399;-44
2022/01/10 21:36:52;;;;;;;10.02;3.22;;;1.40;99.90;;;;;;19873595;29;20046;-44
2022/01/10 21:46:54;;;;;;;9.98;3.55;;;1.50;99.90;;;;;;19862593;29;20146;-44
2022/01/10 21:56:55;;;;;;;18.85;3.65;;;1.50;99.90;;;;;;19861587;29;20424;-45
2022/01/10 22:06:56;;;;;;;10.20;3.15;;;1.30;99.90;;;;;;19865808;29;20501;-45
2022/01/10 22:16:57;;;;;;;11.25;3.80;;;1.30;99.90;;;;;;19857195;29;20273;-45
2022/01/10 22:26:58;;;;;;;11.65;3.53;;;1.30;99.90;;;;;;19862616;29;20553;-44
2022/01/10 22:37:02;;;;;;;13.93;3.65;;;1.30;99.90;;;;;;19863902;29;20558;-44
2022/01/10 22:47:04;;;;;;;13.73;3.40;;;1.30;99.90;;;;;;19850130;29;20074;-44
2022/01/10 22:57:05;;;;;;;15.32;4.10;;;1.50;99.90;;;;;;19862148;29;20400;-46
2022/01/10 23:07:07;;;;;;;19.52;5.72;;;1.50;99.90;;;;;;19866726;29;20769;-45
2022/01/10 23:17:10;;;;;;;11.82;3.35;;;1.40;99.90;;;;;;19867457;29;20358;-45
2022/01/10 23:27:11;;;;;;;13.02;3.40;;;1.60;99.90;;;;;;19863956;29;20051;-45
2022/01/10 23:37:13;;;;;;;17.00;4.35;;;1.60;99.90;;;;;;19876148;29;20526;-44
2022/01/10 23:47:14;;;;;;;12.35;3.20;;;1.50;99.90;;;;;;19885423;29;20605;-44
2022/01/10 23:57:15;;;;;;;12.27;3.35;;;1.20;99.90;;;;;;19881254;29;20059;-44
